createdAt,value
2022-09-12T00:00:06.522Z,17.72
2022-09-12T00:02:34.352Z,17.72
2022-09-12T00:05:02.066Z,17.55
2022-09-12T00:07:29.770Z,17.41
2022-09-12T00:09:57.624Z,17.28
2022-09-12T00:12:25.333Z,16.75
2022-09-12T00:14:53.094Z,17.28
2022-09-12T00:17:22.221Z,17.21
2022-09-12T00:19:49.923Z,17.20
2022-09-12T00:22:17.666Z,17.19
2022-09-12T00:24:45.483Z,17.16
2022-09-12T00:27:13.210Z,17.11
2022-09-12T00:29:40.925Z,17.17
2022-09-12T00:32:08.643Z,17.29
2022-09-12T00:34:37.894Z,16.95
2022-09-12T00:37:05.747Z,16.79
2022-09-12T00:39:33.501Z,16.74
2022-09-12T00:42:01.238Z,17.08
2022-09-12T00:44:48.552Z,17.03
2022-09-12T00:47:21.963Z,17.11
2022-09-12T00:49:56.380Z,17.09
2022-09-12T00:52:29.726Z,17.06
2022-09-12T00:55:03.796Z,17.05
2022-09-12T00:57:36.271Z,17.09
2022-09-12T01:00:12.331Z,17.12
2022-09-12T01:02:40.264Z,17.06
2022-09-12T01:05:10.524Z,17.20
2022-09-12T01:07:40.161Z,17.15
2022-09-12T01:10:10.705Z,17.12
2022-09-12T01:12:41.215Z,17.04
2022-09-12T01:15:10.188Z,16.90
2022-09-12T01:17:50.490Z,16.70
2022-09-12T01:20:42.386Z,16.13
2022-09-12T01:23:45.312Z,16.14
2022-09-12T01:26:43.980Z,16.48
2022-09-12T01:29:30.992Z,16.57
2022-09-12T01:32:09.842Z,16.55
2022-09-12T01:34:48.025Z,16.85
2022-09-12T01:37:23.254Z,16.72
2022-09-12T01:39:57.819Z,16.31
2022-09-12T01:42:32.297Z,16.32
2022-09-12T01:45:09.193Z,16.49
2022-09-12T01:47:42.592Z,16.48
2022-09-12T01:50:16.192Z,16.44
2022-09-12T01:52:50.478Z,16.69
2022-09-12T01:55:22.669Z,16.69
2022-09-12T01:57:56.070Z,16.47
2022-09-12T02:00:24.065Z,16.68
2022-09-12T02:02:57.352Z,16.49
2022-09-12T02:05:32.072Z,16.11
2022-09-12T02:08:06.891Z,16.49
2022-09-12T02:10:42.750Z,16.44
2022-09-12T02:13:16.145Z,16.43
2022-09-12T02:15:46.487Z,16.43
2022-09-12T02:18:19.178Z,16.47
2022-09-12T02:20:49.547Z,16.28
2022-09-12T02:23:22.717Z,16.10
2022-09-12T02:25:54.838Z,16.22
2022-09-12T02:28:27.392Z,16.19
2022-09-12T02:31:06.146Z,16.20
2022-09-12T02:33:44.417Z,16.19
2022-09-12T02:36:17.854Z,16.29
2022-09-12T02:38:48.509Z,16.06
2022-09-12T02:41:19.228Z,16.13
2022-09-12T02:43:47.655Z,16.17
2022-09-12T02:46:29.629Z,16.24
2022-09-12T02:48:58.938Z,16.08
2022-09-12T02:51:27.662Z,16.18
2022-09-12T02:53:55.524Z,15.70
2022-09-12T02:56:29.957Z,15.76
2022-09-12T02:59:02.929Z,15.89
2022-09-12T03:01:47.854Z,15.91
2022-09-12T03:04:34.531Z,15.92
2022-09-12T03:07:13.830Z,16.02
2022-09-12T03:09:48.864Z,16.03
2022-09-12T03:12:32.857Z,15.81
2022-09-12T03:15:30.059Z,16.20
2022-09-12T03:18:07.377Z,16.07
2022-09-12T03:20:46.113Z,15.60
2022-09-12T03:23:21.626Z,15.84
2022-09-12T03:25:55.065Z,15.47
2022-09-12T03:28:23.875Z,15.59
2022-09-12T03:30:54.344Z,15.35
2022-09-12T03:33:23.238Z,15.41
2022-09-12T03:35:54.076Z,15.31
2022-09-12T03:38:21.865Z,15.98
2022-09-12T03:40:54.557Z,15.57
2022-09-12T03:43:22.639Z,15.89
2022-09-12T03:45:53.371Z,16.18
2022-09-12T03:48:21.246Z,16.33
2022-09-12T03:50:48.962Z,16.38
2022-09-12T03:53:18.320Z,16.22
2022-09-12T03:55:46.062Z,15.82
2022-09-12T03:58:13.775Z,15.94
2022-09-12T04:00:42.908Z,15.62
2022-09-12T04:03:10.703Z,15.67
2022-09-12T04:05:38.391Z,16.02
2022-09-12T04:08:06.177Z,15.54
2022-09-12T04:10:35.363Z,15.93
2022-09-12T04:13:03.081Z,15.59
2022-09-12T04:15:30.795Z,15.74
2022-09-12T04:18:02.447Z,15.35
2022-09-12T04:20:32.900Z,15.07
2022-09-12T04:23:00.587Z,14.73
2022-09-12T04:25:28.425Z,14.62
2022-09-12T04:27:57.505Z,15.01
2022-09-12T04:30:25.220Z,14.84
2022-09-12T04:32:52.963Z,14.81
2022-09-12T04:35:20.637Z,15.37
2022-09-12T04:37:48.328Z,14.63
2022-09-12T04:40:16.163Z,14.50
2022-09-12T04:42:43.921Z,14.51
2022-09-12T04:45:13.672Z,14.58
2022-09-12T04:47:41.405Z,14.45
2022-09-12T04:50:09.868Z,14.56
2022-09-12T04:52:37.586Z,14.98
2022-09-12T04:55:05.974Z,14.84
2022-09-12T04:57:33.773Z,14.99
2022-09-12T05:00:06.521Z,15.61
2022-09-12T05:02:36.474Z,14.78
2022-09-12T05:05:04.611Z,14.74
2022-09-12T05:07:32.397Z,14.72
2022-09-12T05:10:00.436Z,14.79
2022-09-12T05:12:28.782Z,14.87
2022-09-12T05:14:56.496Z,14.99
2022-09-12T05:17:24.292Z,15.05
2022-09-12T05:19:53.362Z,15.16
2022-09-12T05:22:21.564Z,15.14
2022-09-12T05:24:50.706Z,15.75
2022-09-12T05:27:18.754Z,15.36
2022-09-12T05:29:46.470Z,15.27
2022-09-12T05:32:14.169Z,15.62
2022-09-12T05:34:41.841Z,15.53
2022-09-12T05:37:10.885Z,15.72
2022-09-12T05:39:38.693Z,15.49
2022-09-12T05:42:07.242Z,15.79
2022-09-12T05:44:34.950Z,15.93
2022-09-12T05:47:02.850Z,15.67
2022-09-12T05:49:30.938Z,15.72
2022-09-12T05:51:58.633Z,15.93
2022-09-12T05:54:31.369Z,16.17
2022-09-12T05:56:59.443Z,16.23
2022-09-12T05:59:28.445Z,16.36
2022-09-12T06:01:56.175Z,16.66
2022-09-12T06:04:25.494Z,16.56
2022-09-12T06:06:53.607Z,16.39
2022-09-12T06:09:21.461Z,16.28
2022-09-12T06:11:50.495Z,16.49
2022-09-12T06:14:19.479Z,16.39
2022-09-12T06:16:48.573Z,16.26
2022-09-12T06:19:18.122Z,17.06
2022-09-12T06:21:47.558Z,16.70
2022-09-12T06:24:15.307Z,17.19
2022-09-12T06:26:43.761Z,16.88
2022-09-12T06:29:13.292Z,17.12
2022-09-12T06:31:42.749Z,17.05
2022-09-12T06:34:12.513Z,17.37
2022-09-12T06:36:41.947Z,17.53
2022-09-12T06:39:12.759Z,18.11
2022-09-12T06:41:43.781Z,17.77
2022-09-12T06:44:16.080Z,17.78
2022-09-12T06:46:44.199Z,18.26
2022-09-12T06:49:12.299Z,18.60
2022-09-12T06:51:41.961Z,18.64
2022-09-12T06:54:13.086Z,18.24
2022-09-12T06:56:40.846Z,18.83
2022-09-12T06:59:08.665Z,19.03
2022-09-12T07:01:37.948Z,19.12
2022-09-12T07:04:06.279Z,19.37
2022-09-12T07:06:38.844Z,19.27
2022-09-12T07:09:09.007Z,19.53
2022-09-12T07:11:38.927Z,19.46
2022-09-12T07:14:09.208Z,19.66
2022-09-12T07:16:38.369Z,19.56
2022-09-12T07:19:07.743Z,19.24
2022-09-12T07:21:40.089Z,19.95
2022-09-12T07:24:09.767Z,19.71
2022-09-12T07:26:38.497Z,20.03
2022-09-12T07:29:34.708Z,19.89
2022-09-12T07:31:55.565Z,19.92
2022-09-12T07:34:23.320Z,20.32
2022-09-12T07:36:50.988Z,20.17
2022-09-12T07:39:18.854Z,19.36
2022-09-12T07:41:46.605Z,20.26
2022-09-12T07:44:14.301Z,20.50
2022-09-12T07:46:42.286Z,20.49
2022-09-12T07:49:13.522Z,19.91
2022-09-12T07:51:41.234Z,20.05
2022-09-12T07:54:10.129Z,20.16
2022-09-12T07:56:39.397Z,20.37
2022-09-12T07:59:07.355Z,20.21
2022-09-12T08:01:35.063Z,20.18
2022-09-12T08:04:04.852Z,20.42
2022-09-12T08:06:36.123Z,20.50
2022-09-12T08:09:06.136Z,20.52
2022-09-12T08:11:33.819Z,20.97
2022-09-12T08:14:03.131Z,21.27
2022-09-12T08:16:32.175Z,21.74
2022-09-12T08:19:02.128Z,22.12
2022-09-12T08:21:31.121Z,21.66
2022-09-12T08:24:02.235Z,22.59
2022-09-12T08:26:30.582Z,22.75
2022-09-12T08:28:58.616Z,21.78
2022-09-12T08:31:28.098Z,22.19
2022-09-12T08:33:57.272Z,21.91
2022-09-12T08:36:27.234Z,21.95
2022-09-12T08:38:59.609Z,22.47
2022-09-12T08:41:31.895Z,21.86
2022-09-12T08:44:27.459Z,22.35
2022-09-12T08:47:28.570Z,21.76
2022-09-12T08:50:11.619Z,21.37
2022-09-12T08:52:45.133Z,22.17
2022-09-12T08:55:31.073Z,22.09
2022-09-12T08:58:01.453Z,21.98
2022-09-12T09:00:37.888Z,22.01
2022-09-12T09:03:47.786Z,21.90
2022-09-12T09:06:29.027Z,21.35
2022-09-12T09:09:06.299Z,21.78
2022-09-12T09:11:48.187Z,21.42
2022-09-12T09:14:50.119Z,21.85
2022-09-12T09:17:26.302Z,21.52
2022-09-12T09:20:00.222Z,21.47
2022-09-12T09:22:38.053Z,21.74
2022-09-12T09:25:12.347Z,22.96
2022-09-12T09:27:47.896Z,22.10
2022-09-12T09:30:19.564Z,22.16
2022-09-12T09:32:51.535Z,21.46
2022-09-12T09:35:25.906Z,21.39
2022-09-12T09:38:02.365Z,21.82
2022-09-12T09:40:43.395Z,21.52
2022-09-12T09:43:19.736Z,21.34
2022-09-12T09:45:48.879Z,23.39
2022-09-12T09:48:22.530Z,25.43
2022-09-12T09:50:51.175Z,25.42
2022-09-12T09:53:36.029Z,26.18
2022-09-12T09:56:10.827Z,26.14
2022-09-12T09:58:38.608Z,27.55
2022-09-12T10:01:15.676Z,27.17
2022-09-12T10:03:50.601Z,26.36
2022-09-12T10:06:27.548Z,25.87
2022-09-12T10:09:18.344Z,25.62
2022-09-12T10:11:46.312Z,27.02
2022-09-12T10:14:35.039Z,26.19
2022-09-12T10:17:22.686Z,27.96
2022-09-12T10:20:10.572Z,25.07
2022-09-12T10:22:39.394Z,28.84
2022-09-12T10:25:14.163Z,26.90
2022-09-12T10:27:43.347Z,28.43
2022-09-12T10:30:19.643Z,27.35
2022-09-12T10:32:51.607Z,28.07
2022-09-12T10:35:22.766Z,29.04
2022-09-12T10:37:56.782Z,28.24
2022-09-12T10:40:27.457Z,26.42
2022-09-12T10:42:56.763Z,25.68
2022-09-12T10:45:30.106Z,24.53
2022-09-12T10:48:06.769Z,24.44
2022-09-12T10:50:40.144Z,24.54
2022-09-12T10:53:19.488Z,23.62
2022-09-12T10:56:05.782Z,25.25
2022-09-12T10:58:48.194Z,24.25
2022-09-12T11:01:27.576Z,25.27
2022-09-12T11:04:15.703Z,25.08
2022-09-12T11:06:54.652Z,26.41
2022-09-12T11:09:29.873Z,27.58
2022-09-12T11:12:09.569Z,28.22
2022-09-12T11:14:49.743Z,28.12
2022-09-12T11:17:30.189Z,27.47
2022-09-12T11:20:22.180Z,28.45
2022-09-12T11:23:06.957Z,28.33
2022-09-12T11:25:41.594Z,26.71
2022-09-12T11:28:29.438Z,28.24
2022-09-12T11:31:16.222Z,28.61
2022-09-12T11:33:45.414Z,27.82
2022-09-12T11:36:30.732Z,28.15
2022-09-12T11:39:14.634Z,28.82
2022-09-12T11:41:47.956Z,28.75
2022-09-12T11:44:22.303Z,28.48
2022-09-12T11:46:52.115Z,28.72
2022-09-12T11:49:35.390Z,27.94
2022-09-12T11:52:12.211Z,27.19
2022-09-12T11:54:49.051Z,26.88
2022-09-12T11:57:28.203Z,25.91
2022-09-12T12:00:00.985Z,27.17
2022-09-12T12:02:30.188Z,28.15
2022-09-12T12:05:16.373Z,27.28
2022-09-12T12:07:53.941Z,27.79
2022-09-12T12:10:27.878Z,26.78
2022-09-12T12:12:57.663Z,28.65
2022-09-12T12:15:26.947Z,27.54
2022-09-12T12:18:03.093Z,26.88
2022-09-12T12:20:30.856Z,28.61
2022-09-12T12:23:01.038Z,27.93
2022-09-12T12:25:41.824Z,26.91
2022-09-12T12:28:09.604Z,26.52
2022-09-12T12:31:05.741Z,25.06
2022-09-12T12:34:10.170Z,26.39
2022-09-12T12:36:43.052Z,26.26
2022-09-12T12:39:48.082Z,26.25
2022-09-12T12:43:07.683Z,25.85
2022-09-12T12:46:13.842Z,26.17
2022-09-12T12:48:52.780Z,25.72
2022-09-12T12:51:48.959Z,25.76
2022-09-12T12:54:48.999Z,25.88
2022-09-12T12:57:25.716Z,26.15
2022-09-12T12:59:56.613Z,25.18
2022-09-12T13:02:31.788Z,25.69
2022-09-12T13:05:02.405Z,25.80
2022-09-12T13:07:37.198Z,24.68
2022-09-12T13:10:07.621Z,23.76
2022-09-12T13:12:38.864Z,24.02
2022-09-12T13:15:45.622Z,23.41
2022-09-12T13:18:20.111Z,23.54
2022-09-12T13:20:52.361Z,23.48
2022-09-12T13:23:25.305Z,23.84
2022-09-12T13:25:57.411Z,23.74
2022-09-12T13:28:27.826Z,23.37
2022-09-12T13:31:10.501Z,22.63
2022-09-12T13:33:43.462Z,23.43
2022-09-12T13:36:42.301Z,23.20
2022-09-12T13:39:16.778Z,23.38
2022-09-12T13:42:03.833Z,22.16
2022-09-12T13:44:36.479Z,22.46
2022-09-12T13:47:04.739Z,22.97
2022-09-12T13:49:37.022Z,23.48
2022-09-12T13:52:08.533Z,24.65
2022-09-12T13:54:39.407Z,24.53
2022-09-12T13:57:07.279Z,24.66
2022-09-12T13:59:40.107Z,23.93
2022-09-12T14:02:19.587Z,24.28
2022-09-12T14:05:09.252Z,23.77
2022-09-12T14:07:47.919Z,25.39
2022-09-12T14:10:28.719Z,25.03
2022-09-12T14:12:58.798Z,24.03
2022-09-12T14:15:31.098Z,24.26
2022-09-12T14:18:01.784Z,24.56
2022-09-12T14:20:32.995Z,24.28
2022-09-12T14:23:04.147Z,24.07
2022-09-12T14:25:39.012Z,23.78
2022-09-12T14:28:07.267Z,23.47
2022-09-12T14:30:37.355Z,23.22
2022-09-12T14:33:17.797Z,23.35
2022-09-12T14:35:50.509Z,24.07
2022-09-12T14:38:32.361Z,23.77
2022-09-12T14:41:04.174Z,23.33
2022-09-12T14:43:33.780Z,23.04
2022-09-12T14:46:04.444Z,23.34
2022-09-12T14:48:36.373Z,22.78
2022-09-12T14:51:07.119Z,22.77
2022-09-12T14:53:37.320Z,23.03
2022-09-12T14:56:09.931Z,22.76
2022-09-12T14:58:38.391Z,24.09
2022-09-12T15:01:25.542Z,23.03
2022-09-12T15:03:56.446Z,23.24
2022-09-12T15:06:29.467Z,23.50
2022-09-12T15:08:59.433Z,23.39
2022-09-12T15:11:27.211Z,23.52
2022-09-12T15:13:55.811Z,23.10
2022-09-12T15:16:23.587Z,22.69
2022-09-12T15:18:51.439Z,23.32
2022-09-12T15:21:21.343Z,23.64
2022-09-12T15:23:51.715Z,23.11
2022-09-12T15:26:21.744Z,23.59
2022-09-12T15:28:49.822Z,23.41
2022-09-12T15:31:25.246Z,23.99
2022-09-12T15:33:53.052Z,23.63
2022-09-12T15:36:22.841Z,23.78
2022-09-12T15:38:53.459Z,23.99
2022-09-12T15:41:22.906Z,23.84
2022-09-12T15:43:51.280Z,23.65
2022-09-12T15:46:20.346Z,23.97
2022-09-12T15:48:48.166Z,23.59
2022-09-12T15:51:18.320Z,23.80
2022-09-12T15:53:47.493Z,23.42
2022-09-12T15:56:17.536Z,22.89
2022-09-12T15:58:57.803Z,22.81
2022-09-12T16:01:27.362Z,23.74
2022-09-12T16:03:55.158Z,23.82
2022-09-12T16:06:23.493Z,24.20
2022-09-12T16:08:51.198Z,24.56
2022-09-12T16:11:23.544Z,24.66
2022-09-12T16:13:53.193Z,24.38
2022-09-12T16:16:21.108Z,24.66
2022-09-12T16:18:48.961Z,24.53
2022-09-12T16:21:16.836Z,24.06
2022-09-12T16:23:44.789Z,24.22
2022-09-12T16:26:12.581Z,23.66
2022-09-12T16:28:41.771Z,23.71
2022-09-12T16:31:11.890Z,23.94
2022-09-12T16:33:41.023Z,22.84
2022-09-12T16:36:10.889Z,23.33
2022-09-12T16:38:42.695Z,23.11
2022-09-12T16:41:10.594Z,22.85
2022-09-12T16:43:38.687Z,23.07
2022-09-12T16:46:10.363Z,22.50
2022-09-12T16:48:38.936Z,22.61
2022-09-12T16:51:07.758Z,22.42
2022-09-12T16:53:37.241Z,22.27
2022-09-12T16:56:05.589Z,22.26
2022-09-12T16:58:37.426Z,22.28
2022-09-12T17:01:10.603Z,21.95
2022-09-12T17:03:38.428Z,21.94
2022-09-12T17:06:08.851Z,21.77
2022-09-12T17:08:39.844Z,21.68
2022-09-12T17:11:09.786Z,21.68
2022-09-12T17:14:02.760Z,21.58
2022-09-12T17:16:28.433Z,21.61
2022-09-12T17:18:56.404Z,22.05
2022-09-12T17:21:24.321Z,21.71
2022-09-12T17:23:52.202Z,21.86
2022-09-12T17:26:20.772Z,21.64
2022-09-12T17:28:48.823Z,21.41
2022-09-12T17:31:17.178Z,21.72
2022-09-12T17:33:46.605Z,21.70
2022-09-12T17:36:16.711Z,21.33
2022-09-12T17:38:46.387Z,21.13
2022-09-12T17:41:17.546Z,21.21
2022-09-12T17:43:46.387Z,21.41
2022-09-12T17:46:14.278Z,21.29
2022-09-12T17:48:42.202Z,21.30
2022-09-12T17:51:13.401Z,21.32
2022-09-12T17:53:41.623Z,21.35
2022-09-12T17:56:10.271Z,21.19
2022-09-12T17:58:38.670Z,21.20
2022-09-12T18:01:26.450Z,21.53
2022-09-12T18:03:55.624Z,21.18
2022-09-12T18:06:24.937Z,21.14
2022-09-12T18:08:53.204Z,20.78
2022-09-12T18:11:20.952Z,20.95
2022-09-12T18:13:48.771Z,20.83
2022-09-12T18:16:16.866Z,21.00
2022-09-12T18:18:44.602Z,21.28
2022-09-12T18:21:13.448Z,20.94
2022-09-12T18:23:42.492Z,20.79
2022-09-12T18:26:13.572Z,20.66
2022-09-12T18:28:43.870Z,20.61
2022-09-12T18:31:13.814Z,20.47
2022-09-12T18:33:42.243Z,20.59
2022-09-12T18:36:12.057Z,20.26
2022-09-12T18:38:41.017Z,20.37
2022-09-12T18:41:11.781Z,20.33
2022-09-12T18:43:39.786Z,20.37
2022-09-12T18:46:09.071Z,20.59
2022-09-12T18:48:37.161Z,20.18
2022-09-12T18:51:07.955Z,20.19
2022-09-12T18:53:36.767Z,20.00
2022-09-12T18:56:08.594Z,20.13
2022-09-12T18:58:37.964Z,20.08
2022-09-12T19:01:13.534Z,20.15
2022-09-12T19:03:41.960Z,20.15
2022-09-12T19:06:11.863Z,19.91
2022-09-12T19:08:40.598Z,20.26
2022-09-12T19:11:09.251Z,19.87
2022-09-12T19:13:41.191Z,19.90
2022-09-12T19:16:11.903Z,19.85
2022-09-12T19:18:40.955Z,19.55
2022-09-12T19:21:13.688Z,19.42
2022-09-12T19:23:41.452Z,19.31
2022-09-12T19:26:11.698Z,19.40
2022-09-12T19:28:40.861Z,19.44
2022-09-12T19:31:10.298Z,19.63
2022-09-12T19:33:38.546Z,19.26
2022-09-12T19:36:17.499Z,19.35
2022-09-12T19:38:55.220Z,19.54
2022-09-12T19:41:22.935Z,19.45
2022-09-12T19:43:51.966Z,19.18
2022-09-12T19:46:21.738Z,19.37
2022-09-12T19:48:50.218Z,19.70
2022-09-12T19:51:18.606Z,19.71
2022-09-12T19:53:46.738Z,19.54
2022-09-12T19:56:15.997Z,19.56
2022-09-12T19:58:46.053Z,19.75
2022-09-12T20:01:17.074Z,19.56
2022-09-12T20:03:45.926Z,19.78
2022-09-12T20:06:15.728Z,19.49
2022-09-12T20:08:44.063Z,19.66
2022-09-12T20:11:13.511Z,19.65
2022-09-12T20:13:41.700Z,19.85
2022-09-12T20:16:10.675Z,20.26
2022-09-12T20:18:40.050Z,19.79
2022-09-12T20:21:12.590Z,19.76
2022-09-12T20:23:41.381Z,20.10
2022-09-12T20:26:09.576Z,19.84
2022-09-12T20:28:37.397Z,19.83
2022-09-12T20:31:07.307Z,19.23
2022-09-12T20:33:35.180Z,19.75
2022-09-12T20:36:06.572Z,19.35
2022-09-12T20:38:34.742Z,19.46
2022-09-12T20:41:03.387Z,19.90
2022-09-12T20:43:31.438Z,19.27
2022-09-12T20:45:59.200Z,19.05
2022-09-12T20:48:26.939Z,19.12
2022-09-12T20:50:54.599Z,19.44
2022-09-12T20:53:24.303Z,19.28
2022-09-12T20:55:52.781Z,19.44
2022-09-12T20:58:21.314Z,19.05
2022-09-12T21:00:49.523Z,19.27
2022-09-12T21:03:17.913Z,18.96
2022-09-12T21:05:46.046Z,19.42
2022-09-12T21:08:14.536Z,19.74
2022-09-12T21:10:44.551Z,18.88
2022-09-12T21:13:14.041Z,18.67
2022-09-12T21:15:42.603Z,19.37
2022-09-12T21:18:10.535Z,19.28
2022-09-12T21:20:38.221Z,19.57
2022-09-12T21:23:05.979Z,19.19
2022-09-12T21:25:33.695Z,18.67
2022-09-12T21:28:03.341Z,19.23
2022-09-12T21:30:31.034Z,19.04
2022-09-12T21:32:58.707Z,19.09
2022-09-12T21:35:26.435Z,19.28
2022-09-12T21:37:54.158Z,18.73
2022-09-12T21:40:21.995Z,19.01
2022-09-12T21:42:50.289Z,19.07
2022-09-12T21:45:19.867Z,19.09
2022-09-12T21:47:47.816Z,18.99
2022-09-12T21:50:15.976Z,19.22
2022-09-12T21:52:43.807Z,18.84
2022-09-12T21:55:13.417Z,19.39
2022-09-12T21:57:41.124Z,19.18
2022-09-12T22:00:12.920Z,18.98
2022-09-12T22:02:42.360Z,19.49
2022-09-12T22:05:10.804Z,18.80
2022-09-12T22:07:38.570Z,18.91
2022-09-12T22:10:07.480Z,18.87
2022-09-12T22:12:35.319Z,18.80
2022-09-12T22:15:17.420Z,18.92
2022-09-12T22:17:52.084Z,18.59
2022-09-12T22:20:19.768Z,18.85
2022-09-12T22:23:23.806Z,18.69
2022-09-12T22:25:55.104Z,18.85
2022-09-12T22:28:23.191Z,18.88
2022-09-12T22:30:50.877Z,18.78
2022-09-12T22:33:19.955Z,18.84
2022-09-12T22:35:47.798Z,18.96
2022-09-12T22:38:15.483Z,18.70
2022-09-12T22:40:43.191Z,18.84
2022-09-12T22:43:11.503Z,18.89
2022-09-12T22:45:41.796Z,18.84
2022-09-12T22:48:09.600Z,19.08
2022-09-12T22:50:38.648Z,19.40
2022-09-12T22:53:06.372Z,18.98
2022-09-12T22:55:34.435Z,19.07
2022-09-12T22:58:03.587Z,19.18
2022-09-12T23:00:31.407Z,19.31
2022-09-12T23:02:59.327Z,18.83
2022-09-12T23:05:27.078Z,19.16
2022-09-12T23:07:56.331Z,19.30
2022-09-12T23:10:26.029Z,19.00
2022-09-12T23:12:53.741Z,19.11
2022-09-12T23:15:21.461Z,18.41
2022-09-12T23:17:49.261Z,18.65
2022-09-12T23:20:17.130Z,19.04
2022-09-12T23:22:44.817Z,18.90
2022-09-12T23:25:14.333Z,19.01
2022-09-12T23:27:42.499Z,18.89
2022-09-12T23:30:11.112Z,18.50
2022-09-12T23:32:38.843Z,18.99
2022-09-12T23:35:07.202Z,18.46
2022-09-12T23:37:34.912Z,19.20
2022-09-12T23:40:03.090Z,18.84
2022-09-12T23:42:32.191Z,18.37
2022-09-12T23:44:59.894Z,18.77
2022-09-12T23:47:27.589Z,18.89
2022-09-12T23:49:55.294Z,18.81
2022-09-12T23:52:23.014Z,19.02
2022-09-12T23:54:50.703Z,18.99
2022-09-12T23:57:18.384Z,18.79
2022-09-12T23:59:47.486Z,19.10
